createdAt,value
2022-09-13T00:00:00.975Z,0.00
2022-09-13T00:01:01.159Z,0.00
2022-09-13T00:02:00.987Z,0.00
2022-09-13T00:03:00.984Z,0.00
2022-09-13T00:04:00.905Z,0.00
2022-09-13T00:05:00.895Z,0.00
2022-09-13T00:06:00.979Z,0.00
2022-09-13T00:07:00.917Z,0.00
2022-09-13T00:08:00.877Z,0.00
2022-09-13T00:09:00.919Z,0.00
2022-09-13T00:10:00.858Z,0.00
2022-09-13T00:11:00.956Z,0.00
2022-09-13T00:12:00.836Z,0.00
2022-09-13T00:13:00.822Z,0.00
2022-09-13T00:14:00.848Z,0.00
2022-09-13T00:15:00.781Z,0.00
2022-09-13T00:16:00.836Z,0.00
2022-09-13T00:17:00.867Z,0.00
2022-09-13T00:18:00.785Z,0.00
2022-09-13T00:19:00.747Z,0.00
2022-09-13T00:20:00.794Z,0.00
2022-09-13T00:21:00.795Z,0.00
2022-09-13T00:22:00.747Z,0.00
2022-09-13T00:23:00.759Z,0.00
2022-09-13T00:24:00.676Z,0.00
2022-09-13T00:25:00.707Z,0.00
2022-09-13T00:26:00.757Z,0.00
2022-09-13T00:27:00.650Z,0.00
2022-09-13T00:28:00.679Z,0.00
2022-09-13T00:29:00.652Z,0.00
2022-09-13T00:30:00.632Z,0.00
2022-09-13T00:31:00.668Z,0.00
2022-09-13T00:32:00.703Z,0.00
2022-09-13T00:33:00.761Z,0.00
2022-09-13T00:34:00.598Z,0.00
2022-09-13T00:35:00.591Z,0.00
2022-09-13T00:36:00.613Z,0.00
2022-09-13T00:37:00.625Z,0.00
2022-09-13T00:38:00.552Z,0.00
2022-09-13T00:39:00.532Z,0.00
2022-09-13T00:40:00.621Z,0.00
2022-09-13T00:41:00.591Z,0.00
2022-09-13T00:42:00.482Z,0.00
2022-09-13T00:43:00.503Z,0.00
2022-09-13T00:44:00.470Z,0.00
2022-09-13T00:45:00.485Z,0.00
2022-09-13T00:46:00.519Z,0.00
2022-09-13T00:47:00.430Z,0.00
2022-09-13T00:48:00.418Z,0.00
2022-09-13T00:49:00.434Z,0.00
2022-09-13T00:50:00.430Z,0.00
2022-09-13T00:51:00.497Z,0.00
2022-09-13T00:52:00.427Z,0.00
2022-09-13T00:53:00.381Z,0.00
2022-09-13T00:54:00.359Z,0.00
2022-09-13T00:55:00.382Z,0.00
2022-09-13T00:56:00.448Z,0.00
2022-09-13T00:57:00.354Z,0.00
2022-09-13T00:58:00.341Z,0.00
2022-09-13T00:59:00.397Z,0.00
2022-09-13T01:00:00.294Z,0.00
2022-09-13T01:01:00.329Z,0.00
2022-09-13T01:02:00.318Z,0.00
2022-09-13T01:03:00.273Z,0.00
2022-09-13T01:04:00.234Z,0.00
2022-09-13T01:05:00.242Z,0.00
2022-09-13T01:06:00.226Z,0.00
2022-09-13T01:07:00.251Z,0.00
2022-09-13T01:08:00.156Z,0.00
2022-09-13T01:09:01.209Z,0.00
2022-09-13T01:10:00.114Z,0.00
2022-09-13T01:11:00.166Z,0.00
2022-09-13T01:12:00.199Z,0.00
2022-09-13T01:13:00.135Z,0.00
2022-09-13T01:14:00.111Z,0.00
2022-09-13T01:15:00.141Z,0.00
2022-09-13T01:16:00.216Z,0.00
2022-09-13T01:17:00.152Z,0.00
2022-09-13T01:18:00.103Z,0.00
2022-09-13T01:19:00.089Z,0.00
2022-09-13T01:20:00.090Z,0.00
2022-09-13T01:21:00.120Z,0.00
2022-09-13T01:22:00.122Z,0.00
2022-09-13T01:23:00.054Z,0.00
2022-09-13T01:24:00.051Z,0.00
2022-09-13T01:25:00.000Z,0.00
2022-09-13T01:26:00.011Z,0.00
2022-09-13T01:27:00.039Z,0.00
2022-09-13T01:28:00.046Z,0.00
2022-09-13T01:28:59.979Z,0.00
2022-09-13T01:29:59.992Z,0.00
2022-09-13T01:30:59.986Z,0.00
2022-09-13T01:32:00.180Z,0.00
2022-09-13T01:32:59.934Z,0.00
2022-09-13T01:33:59.919Z,0.00
2022-09-13T01:34:59.899Z,0.00
2022-09-13T01:35:59.917Z,0.00
2022-09-13T01:36:59.933Z,0.00
2022-09-13T01:37:59.892Z,0.00
2022-09-13T01:38:59.862Z,0.00
2022-09-13T01:39:59.914Z,0.00
2022-09-13T01:41:04.093Z,0.00
2022-09-13T01:42:01.986Z,0.00
2022-09-13T01:42:59.773Z,0.00
2022-09-13T01:43:59.799Z,0.00
2022-09-13T01:44:59.803Z,0.00
2022-09-13T01:45:59.841Z,0.00
2022-09-13T01:46:59.812Z,0.00
2022-09-13T01:47:59.787Z,0.00
2022-09-13T01:48:59.766Z,0.00
2022-09-13T01:49:59.790Z,0.00
2022-09-13T01:50:59.749Z,0.00
2022-09-13T01:51:59.797Z,0.00
2022-09-13T01:52:59.728Z,0.00
2022-09-13T01:53:59.702Z,0.00
2022-09-13T01:54:59.689Z,0.00
2022-09-13T01:55:59.708Z,0.00
2022-09-13T01:56:59.768Z,0.00
2022-09-13T01:57:59.620Z,0.00
2022-09-13T01:58:59.646Z,0.00
2022-09-13T01:59:59.661Z,0.00
2022-09-13T02:00:59.725Z,0.00
2022-09-13T02:01:59.708Z,0.00
2022-09-13T02:02:59.675Z,0.00
2022-09-13T02:03:59.703Z,0.00
2022-09-13T02:04:59.600Z,0.00
2022-09-13T02:05:59.556Z,0.00
2022-09-13T02:06:59.580Z,0.00
2022-09-13T02:07:59.577Z,0.00
2022-09-13T02:08:59.526Z,0.00
2022-09-13T02:09:59.544Z,0.00
2022-09-13T02:10:59.536Z,0.00
2022-09-13T02:11:59.542Z,0.00
2022-09-13T02:12:59.492Z,0.00
2022-09-13T02:13:59.496Z,0.00
2022-09-13T02:14:59.477Z,0.00
2022-09-13T02:15:59.480Z,0.00
2022-09-13T02:16:59.477Z,0.00
2022-09-13T02:17:59.452Z,0.00
2022-09-13T02:18:59.435Z,0.00
2022-09-13T02:19:59.416Z,0.00
2022-09-13T02:20:59.413Z,0.00
2022-09-13T02:21:59.443Z,0.00
2022-09-13T02:22:59.379Z,0.00
2022-09-13T02:23:59.333Z,0.00
2022-09-13T02:25:00.365Z,0.00
2022-09-13T02:25:59.328Z,0.00
2022-09-13T02:26:59.365Z,0.00
2022-09-13T02:27:59.343Z,0.00
2022-09-13T02:28:59.324Z,0.00
2022-09-13T02:29:59.300Z,0.00
2022-09-13T02:30:59.341Z,0.00
2022-09-13T02:31:59.344Z,0.00
2022-09-13T02:32:59.298Z,0.00
2022-09-13T02:33:59.251Z,0.00
2022-09-13T02:34:59.293Z,0.00
2022-09-13T02:35:59.246Z,0.00
2022-09-13T02:36:59.283Z,0.00
2022-09-13T02:37:59.222Z,0.00
2022-09-13T02:38:59.193Z,0.00
2022-09-13T02:39:59.237Z,0.00
2022-09-13T02:40:59.210Z,0.00
2022-09-13T02:41:59.218Z,0.00
2022-09-13T02:42:59.163Z,0.00
2022-09-13T02:43:59.160Z,0.00
2022-09-13T02:44:59.137Z,0.00
2022-09-13T02:45:59.164Z,0.00
2022-09-13T02:46:59.171Z,0.00
2022-09-13T02:47:59.162Z,0.00
2022-09-13T02:48:59.093Z,0.00
2022-09-13T02:49:59.094Z,0.00
2022-09-13T02:50:59.072Z,0.00
2022-09-13T02:51:59.079Z,0.00
2022-09-13T02:52:59.097Z,0.00
2022-09-13T02:53:59.039Z,0.00
2022-09-13T02:54:59.062Z,0.00
2022-09-13T02:55:59.083Z,0.00
2022-09-13T02:56:59.117Z,0.00
2022-09-13T02:57:59.019Z,0.00
2022-09-13T02:58:59.001Z,0.00
2022-09-13T02:59:58.979Z,0.00
2022-09-13T03:00:59.008Z,0.00
2022-09-13T03:01:59.160Z,0.00
2022-09-13T03:02:58.949Z,0.00
2022-09-13T03:03:58.926Z,0.00
2022-09-13T03:04:58.943Z,0.00
2022-09-13T03:05:58.979Z,0.00
2022-09-13T03:06:58.951Z,0.00
2022-09-13T03:07:58.892Z,0.00
2022-09-13T03:08:58.880Z,0.00
2022-09-13T03:09:58.890Z,0.00
2022-09-13T03:10:58.858Z,0.00
2022-09-13T03:11:58.891Z,0.00
2022-09-13T03:12:58.893Z,0.00
2022-09-13T03:13:58.834Z,0.00
2022-09-13T03:14:58.836Z,0.00
2022-09-13T03:15:58.781Z,0.00
2022-09-13T03:16:58.816Z,0.00
2022-09-13T03:17:58.763Z,0.00
2022-09-13T03:18:58.764Z,0.00
2022-09-13T03:19:58.740Z,0.00
2022-09-13T03:20:58.715Z,0.00
2022-09-13T03:21:58.782Z,0.00
2022-09-13T03:22:58.711Z,0.00
2022-09-13T03:23:58.721Z,0.00
2022-09-13T03:24:58.696Z,0.00
2022-09-13T03:25:58.673Z,0.00
2022-09-13T03:26:58.728Z,0.00
2022-09-13T03:27:58.665Z,0.00
2022-09-13T03:28:58.721Z,0.00
2022-09-13T03:29:58.642Z,0.00
2022-09-13T03:30:58.640Z,0.00
2022-09-13T03:31:58.716Z,0.00
2022-09-13T03:32:58.595Z,0.00
2022-09-13T03:33:58.579Z,0.00
2022-09-13T03:34:58.549Z,0.00
2022-09-13T03:35:58.583Z,0.00
2022-09-13T03:36:58.663Z,0.00
2022-09-13T03:37:58.544Z,0.00
2022-09-13T03:38:58.536Z,0.00
2022-09-13T03:39:58.598Z,0.00
2022-09-13T03:40:58.613Z,0.00
2022-09-13T03:41:58.555Z,0.00
2022-09-13T03:42:58.491Z,0.00
2022-09-13T03:43:58.519Z,0.00
2022-09-13T03:44:58.493Z,0.00
2022-09-13T03:45:58.530Z,0.00
2022-09-13T03:46:58.506Z,0.00
2022-09-13T03:47:58.444Z,0.00
2022-09-13T03:48:58.438Z,0.00
2022-09-13T03:49:58.432Z,0.00
2022-09-13T03:50:58.422Z,0.00
2022-09-13T03:51:58.447Z,0.00
2022-09-13T03:52:58.376Z,0.00
2022-09-13T03:53:58.391Z,0.00
2022-09-13T03:55:01.190Z,0.00
2022-09-13T03:55:58.345Z,0.00
2022-09-13T03:56:58.390Z,0.00
2022-09-13T03:57:58.311Z,0.00
2022-09-13T03:58:58.323Z,0.00
2022-09-13T03:59:58.341Z,0.00
2022-09-13T04:00:58.383Z,0.00
2022-09-13T04:01:58.365Z,0.00
2022-09-13T04:02:58.326Z,0.00
2022-09-13T04:03:58.258Z,0.00
2022-09-13T04:04:58.241Z,0.00
2022-09-13T04:05:58.232Z,0.00
2022-09-13T04:06:58.231Z,0.00
2022-09-13T04:07:58.293Z,0.00
2022-09-13T04:08:58.218Z,0.00
2022-09-13T04:09:58.186Z,0.00
2022-09-13T04:10:58.178Z,0.00
2022-09-13T04:11:58.203Z,0.00
2022-09-13T04:12:58.522Z,0.00
2022-09-13T04:13:58.207Z,0.00
2022-09-13T04:14:58.161Z,0.00
2022-09-13T04:15:58.164Z,0.00
2022-09-13T04:16:58.131Z,0.00
2022-09-13T04:17:58.187Z,0.00
2022-09-13T04:18:58.176Z,0.00
2022-09-13T04:19:58.076Z,0.00
2022-09-13T04:20:58.094Z,0.00
2022-09-13T04:21:58.082Z,0.00
2022-09-13T04:22:58.130Z,0.00
2022-09-13T04:23:58.038Z,0.00
2022-09-13T04:25:01.974Z,0.00
2022-09-13T04:25:59.050Z,0.00
2022-09-13T04:26:57.983Z,0.00
2022-09-13T04:27:58.062Z,0.00
2022-09-13T04:28:58.024Z,0.00
2022-09-13T04:29:58.008Z,0.00
2022-09-13T04:30:57.982Z,0.00
2022-09-13T04:31:57.967Z,0.00
2022-09-13T04:32:58.060Z,0.00
2022-09-13T04:33:57.938Z,0.00
2022-09-13T04:34:57.925Z,0.00
2022-09-13T04:35:57.941Z,0.00
2022-09-13T04:36:57.900Z,0.00
2022-09-13T04:37:57.943Z,0.00
2022-09-13T04:38:57.891Z,0.00
2022-09-13T04:39:57.927Z,0.00
2022-09-13T04:40:57.880Z,0.00
2022-09-13T04:41:57.840Z,0.00
2022-09-13T04:42:57.873Z,0.00
2022-09-13T04:43:57.853Z,0.00
2022-09-13T04:44:57.801Z,0.00
2022-09-13T04:45:58.882Z,0.00
2022-09-13T04:46:57.780Z,0.00
2022-09-13T04:47:57.819Z,0.00
2022-09-13T04:48:57.792Z,0.00
2022-09-13T04:49:57.760Z,0.00
2022-09-13T04:50:57.761Z,0.00
2022-09-13T04:51:57.744Z,0.00
2022-09-13T04:52:57.805Z,0.00
2022-09-13T04:53:57.807Z,0.00
2022-09-13T04:54:57.688Z,0.00
2022-09-13T04:55:57.714Z,0.00
2022-09-13T04:56:57.677Z,0.00
2022-09-13T04:57:57.721Z,0.00
2022-09-13T04:58:57.722Z,0.00
2022-09-13T04:59:57.679Z,0.00
2022-09-13T05:00:57.710Z,5.62
2022-09-13T05:01:57.626Z,5.62
2022-09-13T05:02:57.700Z,5.62
2022-09-13T05:03:57.632Z,5.62
2022-09-13T05:04:57.657Z,5.62
2022-09-13T05:05:57.630Z,5.62
2022-09-13T05:06:57.626Z,5.62
2022-09-13T05:07:57.629Z,5.62
2022-09-13T05:08:57.618Z,11.25
2022-09-13T05:09:57.569Z,11.25
2022-09-13T05:10:57.610Z,11.25
2022-09-13T05:11:57.535Z,11.25
2022-09-13T05:12:57.570Z,11.25
2022-09-13T05:13:57.580Z,11.25
2022-09-13T05:14:57.521Z,16.88
2022-09-13T05:15:57.526Z,16.88
2022-09-13T05:16:57.469Z,16.88
2022-09-13T05:17:57.498Z,16.88
2022-09-13T05:18:57.462Z,16.88
2022-09-13T05:19:57.465Z,16.88
2022-09-13T05:20:57.561Z,16.88
2022-09-13T05:21:57.477Z,16.88
2022-09-13T05:22:57.464Z,16.88
2022-09-13T05:23:57.391Z,16.88
2022-09-13T05:24:57.367Z,16.88
2022-09-13T05:25:57.391Z,16.88
2022-09-13T05:26:57.386Z,16.88
2022-09-13T05:27:57.752Z,16.88
2022-09-13T05:28:57.393Z,16.88
2022-09-13T05:29:57.326Z,16.88
2022-09-13T05:30:57.437Z,16.88
2022-09-13T05:31:57.320Z,16.88
2022-09-13T05:32:57.554Z,16.88
2022-09-13T05:33:57.319Z,22.50
2022-09-13T05:34:57.304Z,22.50
2022-09-13T05:35:57.278Z,22.50
2022-09-13T05:36:57.329Z,28.12
2022-09-13T05:37:57.303Z,28.12
2022-09-13T05:39:18.864Z,28.12
2022-09-13T05:40:14.332Z,28.12
2022-09-13T05:40:59.423Z,28.12
2022-09-13T05:41:57.212Z,28.12
2022-09-13T05:42:57.409Z,22.50
2022-09-13T05:44:00.648Z,22.50
2022-09-13T05:44:59.281Z,28.12
2022-09-13T05:45:57.345Z,28.12
2022-09-13T05:46:57.155Z,28.12
2022-09-13T05:47:57.291Z,33.75
2022-09-13T05:48:57.245Z,33.75
2022-09-13T05:50:27.310Z,33.75
2022-09-13T05:50:59.126Z,33.75
2022-09-13T05:51:58.157Z,39.38
2022-09-13T05:52:57.150Z,39.38
2022-09-13T05:53:57.110Z,33.75
2022-09-13T05:54:57.130Z,33.75
2022-09-13T05:55:57.050Z,33.75
2022-09-13T05:56:57.134Z,33.75
2022-09-13T05:57:57.274Z,33.75
2022-09-13T05:58:57.190Z,33.75
2022-09-13T05:59:57.017Z,33.75
2022-09-13T06:00:57.022Z,33.75
2022-09-13T06:01:57.150Z,33.75
2022-09-13T06:02:57.112Z,33.75
2022-09-13T06:03:56.980Z,39.38
2022-09-13T06:04:57.002Z,45.00
2022-09-13T06:05:57.056Z,50.62
2022-09-13T06:06:56.953Z,50.62
2022-09-13T06:07:57.282Z,56.25
2022-09-13T06:08:56.940Z,61.88
2022-09-13T06:09:57.017Z,67.50
2022-09-13T06:10:56.894Z,73.12
2022-09-13T06:11:56.996Z,73.12
2022-09-13T06:12:57.286Z,73.12
2022-09-13T06:13:56.844Z,67.50
2022-09-13T06:14:56.860Z,67.50
2022-09-13T06:15:56.895Z,61.88
2022-09-13T06:16:56.845Z,61.88
2022-09-13T06:17:56.896Z,61.88
2022-09-13T06:18:56.829Z,56.25
2022-09-13T06:19:56.802Z,56.25
2022-09-13T06:20:56.839Z,50.62
2022-09-13T06:21:56.915Z,50.62
2022-09-13T06:22:56.901Z,50.62
2022-09-13T06:23:56.876Z,50.62
2022-09-13T06:24:56.861Z,56.25
2022-09-13T06:25:56.762Z,56.25
2022-09-13T06:26:56.723Z,56.25
2022-09-13T06:27:56.870Z,56.25
2022-09-13T06:28:56.853Z,56.25
2022-09-13T06:29:56.722Z,50.62
2022-09-13T06:30:56.831Z,50.62
2022-09-13T06:31:56.732Z,50.62
2022-09-13T06:32:56.718Z,50.62
2022-09-13T06:33:56.671Z,56.25
2022-09-13T06:34:56.726Z,56.25
2022-09-13T06:35:56.721Z,50.62
2022-09-13T06:36:56.677Z,50.62
2022-09-13T06:37:56.758Z,50.62
2022-09-13T06:38:56.600Z,50.62
2022-09-13T06:39:56.621Z,50.62
2022-09-13T06:40:56.580Z,50.62
2022-09-13T06:41:56.674Z,56.25
2022-09-13T06:42:56.628Z,56.25
2022-09-13T06:43:56.599Z,61.88
2022-09-13T06:44:56.619Z,61.88
2022-09-13T06:45:56.611Z,67.50
2022-09-13T06:46:56.532Z,78.75
2022-09-13T06:47:56.562Z,84.38
2022-09-13T06:48:56.516Z,90.00
2022-09-13T06:49:56.513Z,90.00
2022-09-13T06:50:56.624Z,95.62
2022-09-13T06:51:56.526Z,101.25
2022-09-13T06:52:56.520Z,106.88
2022-09-13T06:53:56.456Z,118.12
2022-09-13T06:54:56.427Z,129.38
2022-09-13T06:55:56.494Z,140.62
2022-09-13T06:56:56.380Z,140.62
2022-09-13T06:57:56.461Z,146.25
2022-09-13T06:58:56.487Z,146.25
2022-09-13T06:59:56.386Z,151.88
2022-09-13T07:00:56.405Z,151.88
2022-09-13T07:01:56.409Z,157.50
2022-09-13T07:02:56.415Z,157.50
2022-09-13T07:03:56.367Z,157.50
2022-09-13T07:04:56.312Z,151.88
2022-09-13T07:05:56.311Z,151.88
2022-09-13T07:06:56.305Z,151.88
2022-09-13T07:07:56.689Z,146.25
2022-09-13T07:08:56.276Z,135.00
2022-09-13T07:10:15.065Z,135.00
2022-09-13T07:10:56.051Z,135.00
2022-09-13T07:11:56.160Z,135.00
2022-09-13T07:12:56.256Z,129.38
2022-09-13T07:13:56.230Z,123.75
2022-09-13T07:14:57.189Z,118.12
2022-09-13T07:15:56.303Z,123.75
2022-09-13T07:16:56.217Z,123.75
2022-09-13T07:17:56.275Z,118.12
2022-09-13T07:18:56.150Z,112.50
2022-09-13T07:19:56.274Z,112.50
2022-09-13T07:20:56.153Z,112.50
2022-09-13T07:21:56.235Z,112.50
2022-09-13T07:22:56.156Z,112.50
2022-09-13T07:23:56.192Z,112.50
2022-09-13T07:24:56.112Z,112.50
2022-09-13T07:25:56.138Z,106.88
2022-09-13T07:26:56.063Z,101.25
2022-09-13T07:27:56.091Z,95.62
2022-09-13T07:28:56.065Z,95.62
2022-09-13T07:29:56.123Z,95.62
2022-09-13T07:30:56.111Z,95.62
2022-09-13T07:31:56.023Z,95.62
2022-09-13T07:32:56.000Z,101.25
2022-09-13T07:33:56.548Z,106.88
2022-09-13T07:34:56.002Z,112.50
2022-09-13T07:35:56.082Z,123.75
2022-09-13T07:36:55.953Z,123.75
2022-09-13T07:37:55.961Z,123.75
2022-09-13T07:38:56.109Z,118.12
2022-09-13T07:39:56.088Z,118.12
2022-09-13T07:40:55.995Z,112.50
2022-09-13T07:41:55.910Z,112.50
2022-09-13T07:42:55.904Z,118.12
2022-09-13T07:43:56.453Z,123.75
2022-09-13T07:44:55.883Z,129.38
2022-09-13T07:45:55.981Z,140.62
2022-09-13T07:46:55.959Z,146.25
2022-09-13T07:47:55.941Z,151.88
2022-09-13T07:48:55.951Z,157.50
2022-09-13T07:49:55.882Z,157.50
2022-09-13T07:50:55.824Z,157.50
2022-09-13T07:51:55.826Z,157.50
2022-09-13T07:52:55.776Z,163.12
2022-09-13T07:53:57.519Z,163.12
2022-09-13T07:54:56.887Z,157.50
2022-09-13T07:55:55.765Z,157.50
2022-09-13T07:56:55.847Z,157.50
2022-09-13T07:57:55.858Z,163.12
2022-09-13T07:58:55.744Z,168.75
2022-09-13T07:59:55.706Z,185.62
2022-09-13T08:00:56.614Z,202.50
2022-09-13T08:01:55.866Z,219.38
2022-09-13T08:02:55.703Z,236.25
2022-09-13T08:03:55.831Z,258.75
2022-09-13T08:04:55.766Z,275.62
2022-09-13T08:05:55.707Z,292.50
2022-09-13T08:06:55.712Z,303.75
2022-09-13T08:07:55.637Z,315.00
2022-09-13T08:08:55.835Z,315.00
2022-09-13T08:09:55.709Z,331.88
2022-09-13T08:10:55.648Z,343.12
2022-09-13T08:11:55.602Z,354.38
2022-09-13T08:12:55.575Z,354.38
2022-09-13T08:13:55.590Z,348.75
2022-09-13T08:14:55.642Z,348.75
2022-09-13T08:15:56.834Z,348.75
2022-09-13T08:16:55.689Z,354.38
2022-09-13T08:17:55.508Z,360.00
2022-09-13T08:18:55.566Z,365.62
2022-09-13T08:19:55.559Z,360.00
2022-09-13T08:20:55.490Z,354.38
2022-09-13T08:21:55.479Z,348.75
2022-09-13T08:22:55.485Z,337.50
2022-09-13T08:23:55.723Z,326.25
2022-09-13T08:24:55.531Z,292.50
2022-09-13T08:25:55.522Z,275.62
2022-09-13T08:26:55.532Z,270.00
2022-09-13T08:27:55.514Z,258.75
2022-09-13T08:28:55.463Z,247.50
2022-09-13T08:29:55.488Z,225.00
2022-09-13T08:30:55.417Z,208.12
2022-09-13T08:31:55.483Z,191.25
2022-09-13T08:32:55.365Z,180.00
2022-09-13T08:33:55.494Z,180.00
2022-09-13T08:34:55.334Z,180.00
2022-09-13T08:35:55.405Z,180.00
2022-09-13T08:36:55.394Z,180.00
2022-09-13T08:37:55.369Z,185.62
2022-09-13T08:38:55.545Z,191.25
2022-09-13T08:39:55.392Z,202.50
2022-09-13T08:40:55.311Z,208.12
2022-09-13T08:41:55.555Z,225.00
2022-09-13T08:42:55.361Z,241.88
2022-09-13T08:43:55.393Z,258.75
2022-09-13T08:44:55.315Z,270.00
2022-09-13T08:45:55.250Z,270.00
2022-09-13T08:46:55.265Z,264.38
2022-09-13T08:47:55.301Z,264.38
2022-09-13T08:48:55.238Z,275.62
2022-09-13T08:49:55.289Z,281.25
2022-09-13T08:50:55.160Z,281.25
2022-09-13T08:51:55.332Z,270.00
2022-09-13T08:52:55.286Z,270.00
2022-09-13T08:53:57.917Z,270.00
2022-09-13T08:54:58.313Z,270.00
2022-09-13T08:55:56.137Z,275.62
2022-09-13T08:56:55.148Z,281.25
2022-09-13T08:57:55.149Z,281.25
2022-09-13T08:58:55.139Z,281.25
2022-09-13T08:59:55.084Z,281.25
2022-09-13T09:00:55.062Z,286.88
2022-09-13T09:01:55.127Z,286.88
2022-09-13T09:02:55.150Z,286.88
2022-09-13T09:03:55.055Z,292.50
2022-09-13T09:04:55.176Z,292.50
2022-09-13T09:05:55.041Z,303.75
2022-09-13T09:06:57.980Z,315.00
2022-09-13T09:07:56.009Z,331.88
2022-09-13T09:08:55.118Z,343.12
2022-09-13T09:09:55.098Z,348.75
2022-09-13T09:10:55.093Z,354.38
2022-09-13T09:11:54.944Z,360.00
2022-09-13T09:12:55.210Z,365.62
2022-09-13T09:13:54.997Z,365.62
2022-09-13T09:14:55.179Z,371.25
2022-09-13T09:15:55.101Z,365.62
2022-09-13T09:16:54.991Z,360.00
2022-09-13T09:17:54.916Z,354.38
2022-09-13T09:18:54.966Z,348.75
2022-09-13T09:19:54.983Z,343.12
2022-09-13T09:20:54.890Z,337.50
2022-09-13T09:21:54.879Z,331.88
2022-09-13T09:22:54.850Z,320.62
2022-09-13T09:23:54.884Z,315.00
2022-09-13T09:24:54.898Z,320.62
2022-09-13T09:25:54.823Z,331.88
2022-09-13T09:26:54.795Z,337.50
2022-09-13T09:27:54.764Z,337.50
2022-09-13T09:28:54.898Z,337.50
2022-09-13T09:29:54.773Z,343.12
2022-09-13T09:30:54.888Z,348.75
2022-09-13T09:31:54.767Z,360.00
2022-09-13T09:32:54.753Z,371.25
2022-09-13T09:33:54.856Z,376.88
2022-09-13T09:34:54.793Z,376.88
2022-09-13T09:35:54.814Z,427.50
2022-09-13T09:36:54.804Z,478.12
2022-09-13T09:37:54.726Z,466.88
2022-09-13T09:38:55.029Z,360.00
2022-09-13T09:39:54.736Z,371.25
2022-09-13T09:40:54.707Z,365.62
2022-09-13T09:41:54.653Z,444.38
2022-09-13T09:42:54.603Z,365.62
2022-09-13T09:43:54.824Z,376.88
2022-09-13T09:44:54.603Z,399.38
2022-09-13T09:45:54.631Z,376.88
2022-09-13T09:46:54.616Z,399.38
2022-09-13T09:47:54.630Z,410.62
2022-09-13T09:48:54.957Z,450.00
2022-09-13T09:49:54.618Z,450.00
2022-09-13T09:50:54.549Z,495.00
2022-09-13T09:51:54.546Z,528.75
2022-09-13T09:52:54.540Z,568.12
2022-09-13T09:53:54.645Z,478.12
2022-09-13T09:54:54.530Z,478.12
2022-09-13T09:55:54.539Z,489.38
2022-09-13T09:56:54.512Z,489.38
2022-09-13T09:57:54.473Z,495.00
2022-09-13T09:58:54.541Z,511.88
2022-09-13T09:59:54.459Z,534.38
2022-09-13T10:00:54.411Z,528.75
2022-09-13T10:01:54.463Z,545.62
2022-09-13T10:02:54.513Z,472.50
2022-09-13T10:03:54.459Z,483.75
2022-09-13T10:04:54.402Z,528.75
2022-09-13T10:05:54.502Z,478.12
2022-09-13T10:06:54.359Z,534.38
2022-09-13T10:07:54.625Z,534.38
2022-09-13T10:08:54.369Z,540.00
2022-09-13T10:09:54.481Z,545.62
2022-09-13T10:10:54.345Z,455.62
2022-09-13T10:11:54.321Z,466.88
2022-09-13T10:12:54.300Z,534.38
2022-09-13T10:13:54.303Z,472.50
2022-09-13T10:14:54.252Z,511.88
2022-09-13T10:15:54.349Z,444.38
2022-09-13T10:16:54.283Z,472.50
2022-09-13T10:17:54.242Z,517.50
2022-09-13T10:18:54.484Z,523.12
2022-09-13T10:19:54.217Z,517.50
2022-09-13T10:20:54.234Z,489.38
2022-09-13T10:21:54.275Z,523.12
2022-09-13T10:22:54.207Z,483.75
2022-09-13T10:23:54.369Z,523.12
2022-09-13T10:24:54.251Z,523.12
2022-09-13T10:25:54.253Z,523.12
2022-09-13T10:26:54.188Z,528.75
2022-09-13T10:27:54.241Z,517.50
2022-09-13T10:28:54.195Z,506.25
2022-09-13T10:29:54.111Z,506.25
2022-09-13T10:30:54.136Z,506.25
2022-09-13T10:31:54.080Z,517.50
2022-09-13T10:32:54.176Z,511.88
2022-09-13T10:33:54.467Z,466.88
2022-09-13T10:34:54.157Z,461.25
2022-09-13T10:35:54.039Z,466.88
2022-09-13T10:36:54.035Z,511.88
2022-09-13T10:37:54.056Z,500.62
2022-09-13T10:38:54.046Z,506.25
2022-09-13T10:39:54.203Z,517.50
2022-09-13T10:40:54.057Z,562.50
2022-09-13T10:41:54.146Z,540.00
2022-09-13T10:42:54.006Z,523.12
2022-09-13T10:43:54.327Z,528.75
2022-09-13T10:44:54.019Z,517.50
2022-09-13T10:45:53.975Z,562.50
2022-09-13T10:46:54.035Z,534.38
2022-09-13T10:47:53.996Z,540.00
2022-09-13T10:48:54.047Z,545.62
2022-09-13T10:49:53.991Z,540.00
2022-09-13T10:50:53.857Z,540.00
2022-09-13T10:51:54.006Z,534.38
2022-09-13T10:52:53.941Z,523.12
2022-09-13T10:53:54.192Z,528.75
2022-09-13T10:54:53.944Z,517.50
2022-09-13T10:55:53.824Z,506.25
2022-09-13T10:56:53.945Z,523.12
2022-09-13T10:57:53.814Z,545.62
2022-09-13T10:58:53.946Z,545.62
2022-09-13T10:59:53.889Z,534.38
2022-09-13T11:00:53.781Z,556.88
2022-09-13T11:01:53.858Z,562.50
2022-09-13T11:02:53.811Z,562.50
2022-09-13T11:03:53.851Z,540.00
2022-09-13T11:04:53.753Z,545.62
2022-09-13T11:05:53.797Z,551.25
2022-09-13T11:06:54.872Z,540.00
2022-09-13T11:07:53.793Z,540.00
2022-09-13T11:08:53.787Z,511.88
2022-09-13T11:09:53.835Z,528.75
2022-09-13T11:10:53.678Z,500.62
2022-09-13T11:11:53.754Z,511.88
2022-09-13T11:12:53.757Z,500.62
2022-09-13T11:13:53.696Z,478.12
2022-09-13T11:14:53.629Z,483.75
2022-09-13T11:15:53.632Z,483.75
2022-09-13T11:16:53.711Z,540.00
2022-09-13T11:17:53.682Z,534.38
2022-09-13T11:18:53.785Z,534.38
2022-09-13T11:19:56.895Z,545.62
2022-09-13T11:20:54.698Z,551.25
2022-09-13T11:21:53.579Z,545.62
2022-09-13T11:22:53.530Z,551.25
2022-09-13T11:23:53.586Z,551.25
2022-09-13T11:24:53.544Z,568.12
2022-09-13T11:25:53.501Z,556.88
2022-09-13T11:26:53.774Z,528.75
2022-09-13T11:27:53.584Z,517.50
2022-09-13T11:28:53.546Z,511.88
2022-09-13T11:29:53.489Z,511.88
2022-09-13T11:30:53.447Z,500.62
2022-09-13T11:31:53.549Z,489.38
2022-09-13T11:32:53.574Z,495.00
2022-09-13T11:33:53.459Z,506.25
2022-09-13T11:34:53.551Z,500.62
2022-09-13T11:35:53.408Z,506.25
2022-09-13T11:36:53.519Z,506.25
2022-09-13T11:37:53.415Z,551.25
2022-09-13T11:38:53.405Z,540.00
2022-09-13T11:39:53.573Z,551.25
2022-09-13T11:40:53.372Z,573.75
2022-09-13T11:41:53.451Z,562.50
2022-09-13T11:42:53.354Z,562.50
2022-09-13T11:43:53.424Z,556.88
2022-09-13T11:44:53.456Z,568.12
2022-09-13T11:45:53.440Z,579.38
2022-09-13T11:46:53.354Z,607.50
2022-09-13T11:47:53.427Z,613.12
2022-09-13T11:48:53.349Z,624.38
2022-09-13T11:49:53.300Z,613.12
2022-09-13T11:50:53.358Z,601.88
2022-09-13T11:51:53.360Z,618.75
2022-09-13T11:52:53.297Z,607.50
2022-09-13T11:53:53.391Z,607.50
2022-09-13T11:54:53.258Z,579.38
2022-09-13T11:55:53.322Z,607.50
2022-09-13T11:56:53.229Z,635.62
2022-09-13T11:57:53.307Z,686.25
2022-09-13T11:58:53.569Z,669.38
2022-09-13T11:59:53.288Z,630.00
2022-09-13T12:00:53.245Z,652.50
2022-09-13T12:01:53.294Z,641.25
2022-09-13T12:02:53.250Z,641.25
2022-09-13T12:03:53.261Z,630.00
2022-09-13T12:05:18.070Z,607.50
2022-09-13T12:05:55.234Z,607.50
2022-09-13T12:06:53.205Z,607.50
2022-09-13T12:07:53.221Z,607.50
2022-09-13T12:08:53.320Z,635.62
2022-09-13T12:09:53.171Z,624.38
2022-09-13T12:10:53.166Z,641.25
2022-09-13T12:11:53.019Z,607.50
2022-09-13T12:12:53.074Z,618.75
2022-09-13T12:13:53.155Z,607.50
2022-09-13T12:14:53.019Z,601.88
2022-09-13T12:15:53.070Z,590.62
2022-09-13T12:16:53.092Z,590.62
2022-09-13T12:17:53.223Z,590.62
2022-09-13T12:18:53.295Z,585.00
2022-09-13T12:19:53.053Z,573.75
2022-09-13T12:20:53.040Z,568.12
2022-09-13T12:21:53.040Z,556.88
2022-09-13T12:22:53.039Z,562.50
2022-09-13T12:23:53.050Z,545.62
2022-09-13T12:24:53.272Z,545.62
2022-09-13T12:25:53.065Z,545.62
2022-09-13T12:26:52.961Z,573.75
2022-09-13T12:27:52.893Z,579.38
2022-09-13T12:28:52.960Z,613.12
2022-09-13T12:29:52.994Z,607.50
2022-09-13T12:30:52.879Z,630.00
2022-09-13T12:31:53.010Z,635.62
2022-09-13T12:32:58.085Z,613.12
2022-09-13T12:33:54.996Z,658.12
2022-09-13T12:34:52.850Z,641.25
2022-09-13T12:35:52.921Z,658.12
2022-09-13T12:36:52.815Z,691.88
2022-09-13T12:37:52.770Z,680.62
2022-09-13T12:38:52.792Z,658.12
2022-09-13T12:39:52.871Z,630.00
2022-09-13T12:40:52.849Z,635.62
2022-09-13T12:41:52.837Z,703.12
2022-09-13T12:42:52.835Z,731.25
2022-09-13T12:43:52.850Z,731.25
2022-09-13T12:44:52.781Z,736.88
2022-09-13T12:45:52.741Z,736.88
2022-09-13T12:46:52.680Z,720.00
2022-09-13T12:47:52.684Z,742.50
2022-09-13T12:48:52.730Z,725.62
2022-09-13T12:49:52.677Z,641.25
2022-09-13T12:50:52.731Z,669.38